Time;durP1;ratioP1;P1;durP2;ratioP2;P2;SDS_P1;SDS_P2;PMS_P1;PMS_P2;Temp;Humidity;BMP_temperature;BMP_pressure;BME280_temperature;BME280_humidity;BME280_pressure;Samples;Min_cycle;Max_cycle;Signal;HPM_P1;HPM_P2
2023/11/19 00:00:27;;;;;;;21.75;12.30;;;;;;;3.64;100.00;100487.22;5008301;28;20053;-74
2023/11/19 00:02:52;;;;;;;23.65;14.05;;;;;;;3.62;100.00;100464.56;5026132;28;20049;-75
2023/11/19 00:05:18;;;;;;;24.48;12.73;;;;;;;3.67;100.00;100457.09;5008156;28;20123;-74
2023/11/19 00:07:44;;;;;;;21.38;11.55;;;;;;;3.76;100.00;100469.56;5008485;28;20029;-75
2023/11/19 00:10:10;;;;;;;21.75;11.68;;;;;;;3.77;100.00;100468.59;5026013;28;20037;-76
2023/11/19 00:12:41;;;;;;;24.13;12.30;;;;;;;3.75;100.00;100470.53;4991566;28;20491;-77
2023/11/19 00:15:18;;;;;;;20.50;10.80;;;;;;;3.75;100.00;100455.50;5008029;28;20029;-73
2023/11/19 00:17:45;;;;;;;23.27;12.27;;;;;;;3.96;100.00;100457.38;5008376;28;20037;-73
2023/11/19 00:20:21;;;;;;;23.73;11.55;;;;;;;3.96;100.00;100441.50;5008216;28;20041;-76
2023/11/19 00:22:48;;;;;;;21.40;10.07;;;;;;;3.93;100.00;100428.53;4984813;28;20025;-74
2023/11/19 00:25:14;;;;;;;24.17;12.80;;;;;;;3.87;100.00;100429.91;5008233;28;20114;-75
2023/11/19 00:27:39;;;;;;;21.02;11.35;;;;;;;3.70;100.00;100411.94;5024572;28;20017;-76
2023/11/19 00:30:06;;;;;;;19.52;11.43;;;;;;;3.89;100.00;100421.84;4991699;28;20064;-76
2023/11/19 00:32:32;;;;;;;21.23;11.63;;;;;;;3.77;100.00;100408.69;4990390;28;20891;-77
2023/11/19 00:34:59;;;;;;;24.35;10.65;;;;;;;3.80;100.00;100397.88;5024231;28;20025;-74
2023/11/19 00:37:24;;;;;;;19.90;12.13;;;;;;;3.79;100.00;100385.66;5024383;28;20036;-75
2023/11/19 00:39:51;;;;;;;20.87;11.27;;;;;;;3.78;100.00;100378.69;5008056;28;20037;-76
2023/11/19 00:42:17;;;;;;;18.23;10.85;;;;;;;3.76;100.00;100374.50;5008098;28;20034;-76
2023/11/19 00:44:42;;;;;;;19.48;10.15;;;;;;;3.88;100.00;100373.47;5024993;28;20040;-76
2023/11/19 00:47:08;;;;;;;16.88;10.75;;;;;;;3.87;100.00;100360.41;5008471;28;20037;-76
2023/11/19 00:49:33;;;;;;;22.48;11.50;;;;;;;3.92;100.00;100368.78;5008794;28;20040;-76
2023/11/19 00:51:59;;;;;;;22.83;11.10;;;;;;;3.77;100.00;100349.78;5008410;28;20112;-77
2023/11/19 00:54:25;;;;;;;22.50;10.75;;;;;;;3.77;100.00;100362.97;5007943;28;20280;-76
2023/11/19 00:56:54;;;;;;;;;;;;;;;3.78;100.00;100347.00;5008132;28;20069;-76
2023/11/19 00:59:20;;;;;;;19.20;10.38;;;;;;;3.65;100.00;100312.00;5004896;28;20343;-77
2023/11/19 01:01:48;;;;;;;20.67;10.50;;;;;;;3.78;100.00;100339.06;5007560;28;20034;-75
2023/11/19 01:04:14;;;;;;;22.55;11.40;;;;;;;3.72;100.00;100326.41;5007924;28;20042;-76
2023/11/19 01:06:39;;;;;;;15.45;9.18;;;;;;;3.89;100.00;100342.63;5010519;28;20465;-77
2023/11/19 01:09:05;;;;;;;16.92;10.20;;;;;;;3.91;100.00;100330.09;4995599;28;20053;-76
2023/11/19 01:11:31;;;;;;;18.92;9.13;;;;;;;3.93;100.00;100320.25;5027746;28;20484;-76
2023/11/19 01:13:56;;;;;;;18.42;9.93;;;;;;;3.90;100.00;100308.16;5011199;28;20029;-75
2023/11/19 01:16:22;;;;;;;18.83;9.37;;;;;;;3.80;100.00;100283.50;4995140;28;20022;-74
2023/11/19 01:18:51;;;;;;;18.20;9.30;;;;;;;3.71;100.00;100282.47;4995406;28;20037;-74
2023/11/19 01:21:16;;;;;;;12.85;8.10;;;;;;;3.95;100.00;100290.09;5007441;28;20115;-74
2023/11/19 01:23:45;;;;;;;16.77;9.97;;;;;;;3.89;100.00;100266.88;4994499;28;20607;-76
2023/11/19 01:26:12;;;;;;;15.52;9.63;;;;;;;3.90;100.00;100270.34;4994838;28;20311;-76
2023/11/19 01:28:46;;;;;;;12.57;7.90;;;;;;;3.79;100.00;100264.19;4994664;28;20124;-76
2023/11/19 01:31:15;;;;;;;12.88;8.40;;;;;;;3.79;100.00;100248.34;4990747;28;20026;-74
2023/11/19 01:33:41;;;;;;;12.50;7.32;;;;;;;3.95;100.00;100242.56;5009021;28;20285;-75
2023/11/19 01:36:07;;;;;;;;;;;;;;;4.04;100.00;100232.19;5006387;28;20546;-76
2023/11/19 01:38:34;;;;;;;12.77;7.03;;;;;;;3.89;100.00;100215.84;5011416;28;19917;-76
2023/11/19 01:41:01;;;;;;;12.55;6.85;;;;;;;3.94;100.00;100214.47;4994643;28;20048;-76
2023/11/19 01:43:34;;;;;;;11.98;7.78;;;;;;;3.98;100.00;100225.59;5010274;28;20037;-77
2023/11/19 01:46:00;;;;;;;12.38;7.38;;;;;;;3.83;100.00;100216.38;5010851;28;20048;-77
2023/11/19 01:48:26;;;;;;;;;;;;;;;3.89;100.00;100195.56;4994657;28;20068;-76
2023/11/19 01:50:52;;;;;;;10.38;6.30;;;;;;;3.88;100.00;100193.03;4998224;28;19979;-76
2023/11/19 01:53:19;;;;;;;17.00;8.15;;;;;;;3.96;100.00;100180.03;4994090;28;20128;-76
2023/11/19 01:55:47;;;;;;;10.70;6.63;;;;;;;3.90;100.00;100168.16;5010655;28;20025;-76
2023/11/19 01:58:13;;;;;;;11.93;6.57;;;;;;;3.95;100.00;100170.41;5003370;28;20034;-77
2023/11/19 02:00:38;;;;;;;11.35;7.45;;;;;;;3.90;100.00;100169.97;5009774;28;20088;-76
2023/11/19 02:03:07;;;;;;;12.40;8.00;;;;;;;4.09;100.00;100163.91;5018857;28;20084;-77
2023/11/19 02:05:33;;;;;;;11.88;6.95;;;;;;;3.88;100.00;100134.94;5013451;28;20056;-77
2023/11/19 02:07:59;;;;;;;30.20;7.38;;;;;;;3.90;100.00;100133.00;5013127;28;20030;-76
2023/11/19 02:10:24;;;;;;;12.10;8.30;;;;;;;4.00;100.00;100134.72;4990025;28;20040;-77
2023/11/19 02:12:51;;;;;;;15.07;8.02;;;;;;;4.03;100.00;100125.69;4989200;28;20302;-77
2023/11/19 02:15:18;;;;;;;12.65;6.40;;;;;;;3.96;100.00;100121.91;5027358;28;20084;-78
2023/11/19 02:17:44;;;;;;;11.00;6.72;;;;;;;4.01;100.00;100111.78;5031455;28;20025;-75
2023/11/19 02:20:12;;;;;;;11.68;7.47;;;;;;;3.99;100.00;100111.06;5013000;28;20113;-77
2023/11/19 02:22:37;;;;;;;10.27;6.32;;;;;;;3.86;100.00;100105.19;5002997;28;20141;-75
2023/11/19 02:25:19;;;;;;;11.07;6.57;;;;;;;4.06;100.00;100117.47;5014075;28;20504;-75
2023/11/19 02:28:00;;;;;;;10.38;6.72;;;;;;;4.07;100.00;100118.31;4996306;28;20090;-78
2023/11/19 02:30:28;;;;;;;9.93;5.30;;;;;;;4.04;100.00;100118.59;5010989;28;20033;-77
2023/11/19 02:32:58;;;;;;;8.45;4.82;;;;;;;3.94;100.00;100089.50;4994308;28;20489;-76
2023/11/19 02:35:24;;;;;;;9.27;6.15;;;;;;;4.12;100.00;100106.38;5015015;28;20120;-77
2023/11/19 02:37:50;;;;;;;10.50;5.45;;;;;;;4.13;100.00;100096.63;5008048;28;20083;-78
2023/11/19 02:40:15;;;;;;;10.75;5.20;;;;;;;4.02;100.00;100079.09;5009311;28;20025;-77
2023/11/19 02:42:41;;;;;;;11.13;5.47;;;;;;;3.96;100.00;100079.66;4995052;28;20100;-76
2023/11/19 02:45:07;;;;;;;7.38;4.78;;;;;;;3.97;100.00;100082.13;5016508;28;20021;-76
2023/11/19 02:47:33;;;;;;;13.45;5.03;;;;;;;4.05;100.00;100084.13;4984428;28;20121;-75
2023/11/19 02:50:00;;;;;;;6.57;4.70;;;;;;;4.15;100.00;100073.56;4985386;28;20472;-76
2023/11/19 02:52:25;;;;;;;8.98;4.95;;;;;;;4.09;100.00;100061.72;4989058;28;20064;-76
2023/11/19 02:54:51;;;;;;;7.60;5.00;;;;;;;4.12;100.00;100058.81;4988991;28;20508;-74
2023/11/19 02:57:19;;;;;;;6.60;4.55;;;;;;;4.08;100.00;100043.38;4998698;28;20435;-74
2023/11/19 02:59:44;;;;;;;5.93;4.28;;;;;;;4.14;100.00;100054.22;4982115;28;20034;-75
2023/11/19 03:02:15;;;;;;;5.85;3.70;;;;;;;4.20;100.00;100064.25;5006451;28;20029;-75
2023/11/19 03:04:43;;;;;;;4.88;3.38;;;;;;;4.21;100.00;100079.13;5009643;28;20099;-76
2023/11/19 03:07:09;;;;;;;6.57;3.55;;;;;;;4.22;100.00;100058.81;4990686;28;20396;-75
2023/11/19 03:09:35;;;;;;;5.93;3.58;;;;;;;4.15;100.00;100045.34;5008566;28;20041;-75
2023/11/19 03:12:01;;;;;;;7.72;3.60;;;;;;;4.01;100.00;100019.31;4975162;28;20067;-75
2023/11/19 03:14:26;;;;;;;4.65;3.13;;;;;;;4.01;100.00;100014.03;4990649;28;20132;-75
2023/11/19 03:16:52;;;;;;;4.70;3.25;;;;;;;4.10;100.00;100013.22;5025797;28;20037;-75
2023/11/19 03:19:17;;;;;;;4.95;3.30;;;;;;;4.05;100.00;99990.81;4993812;28;20591;-73
2023/11/19 03:21:42;;;;;;;3.87;2.30;;;;;;;4.01;100.00;99984.97;4984745;28;20038;-74
2023/11/19 03:24:08;;;;;;;4.18;2.33;;;;;;;4.01;100.00;99982.34;5025360;28;20033;-75
2023/11/19 03:26:34;;;;;;;3.60;2.58;;;;;;;4.02;100.00;99968.97;4993079;28;20625;-75
2023/11/19 03:28:59;;;;;;;4.22;1.92;;;;;;;4.09;100.00;99963.97;4980747;28;20038;-74
2023/11/19 03:31:25;;;;;;;2.72;2.28;;;;;;;4.22;100.00;99964.53;4976454;28;20029;-75
2023/11/19 03:33:51;;;;;;;3.55;2.17;;;;;;;4.19;100.00;99950.75;5009000;28;20030;-75
2023/11/19 03:36:17;;;;;;;3.38;2.10;;;;;;;4.07;100.00;99936.88;5009420;28;20600;-75
2023/11/19 03:38:42;;;;;;;3.15;2.10;;;;;;;4.17;100.00;99937.72;5005816;28;20118;-72
2023/11/19 03:41:14;;;;;;;4.13;2.40;;;;;;;4.04;100.00;99929.22;5008506;28;20136;-74
2023/11/19 03:43:40;;;;;;;3.50;2.33;;;;;;;4.06;100.00;99931.75;5008755;28;20048;-75
2023/11/19 03:46:19;;;;;;;4.55;2.47;;;;;;;4.11;100.00;99930.34;5009148;28;20022;-76
2023/11/19 03:48:46;;;;;;;5.95;2.40;;;;;;;4.16;100.00;99928.09;5008746;28;20045;-75
2023/11/19 03:51:15;;;;;;;4.03;2.63;;;;;;;4.10;100.00;99912.00;5008979;28;20037;-75
2023/11/19 03:53:43;;;;;;;3.70;2.53;;;;;;;4.26;100.00;99924.59;5005167;28;20033;-77
2023/11/19 03:56:10;;;;;;;3.38;2.78;;;;;;;4.23;100.00;99923.09;4984460;28;20041;-75
2023/11/19 03:58:35;;;;;;;3.20;2.30;;;;;;;4.13;100.00;99912.53;4981897;28;20037;-76
2023/11/19 04:01:02;;;;;;;3.17;2.75;;;;;;;4.21;100.00;99912.69;4987538;28;20033;-77
2023/11/19 04:03:27;;;;;;;3.00;2.33;;;;;;;4.16;100.00;99909.59;5021481;28;20037;-73
2023/11/19 04:05:53;;;;;;;4.35;2.80;;;;;;;4.18;100.00;99910.28;5016503;28;20515;-75
2023/11/19 04:08:19;;;;;;;3.20;2.47;;;;;;;4.17;100.00;99898.06;4998359;28;20044;-74
2023/11/19 04:10:45;;;;;;;4.07;2.92;;;;;;;4.24;100.00;99882.50;5008298;28;20026;-77
2023/11/19 04:13:10;;;;;;;3.60;2.67;;;;;;;4.19;100.00;99880.28;5008848;28;20045;-77
2023/11/19 04:15:35;;;;;;;4.23;2.63;;;;;;;4.16;100.00;99875.25;5005165;28;20040;-77
2023/11/19 04:18:01;;;;;;;4.57;3.23;;;;;;;4.35;100.00;99889.41;4987964;28;20995;-75
2023/11/19 04:20:26;;;;;;;3.92;2.22;;;;;;;4.43;100.00;99887.72;5001656;28;20030;-77
2023/11/19 04:22:54;;;;;;;2.50;2.28;;;;;;;4.43;100.00;99881.59;4982223;28;20018;-77
2023/11/19 04:25:20;;;;;;;4.80;3.35;;;;;;;4.40;100.00;99888.00;5005903;28;20249;-77
2023/11/19 04:27:47;;;;;;;6.07;3.05;;;;;;;4.33;100.00;99879.00;5000571;28;20646;-77
2023/11/19 04:30:13;;;;;;;4.53;2.75;;;;;;;4.26;100.00;99869.97;5025110;28;20053;-77
2023/11/19 04:32:39;;;;;;;7.95;3.65;;;;;;;4.33;100.00;99870.22;5007215;28;20026;-73
2023/11/19 04:35:06;;;;;;;5.07;3.72;;;;;;;4.30;100.00;99855.47;5016862;28;20172;-76
2023/11/19 04:37:32;;;;;;;3.78;2.80;;;;;;;4.23;100.00;99859.66;4990078;28;20064;-74
2023/11/19 04:39:57;;;;;;;3.17;2.77;;;;;;;4.13;100.00;99840.38;5003248;28;20552;-74
2023/11/19 04:42:22;;;;;;;4.03;2.53;;;;;;;4.20;100.00;99839.66;5010035;28;20387;-73
2023/11/19 04:44:48;;;;;;;3.42;2.53;;;;;;;4.31;100.00;99841.31;4988716;28;20018;-77
2023/11/19 04:47:14;;;;;;;3.37;2.37;;;;;;;4.29;100.00;99831.84;5012342;28;20124;-75
2023/11/19 04:49:45;;;;;;;3.45;2.33;;;;;;;4.28;100.00;99825.72;5012590;28;20392;-76
2023/11/19 04:52:11;;;;;;;4.20;2.67;;;;;;;4.32;100.00;99823.63;5012405;28;20037;-75
2023/11/19 04:54:42;;;;;;;2.70;2.20;;;;;;;4.32;100.00;99823.63;5005868;28;20468;-74
2023/11/19 04:57:09;;;;;;;3.58;2.28;;;;;;;4.28;100.00;99807.22;5022838;28;20287;-74
2023/11/19 04:59:34;;;;;;;4.10;2.05;;;;;;;4.21;100.00;99812.28;5011723;28;20108;-73
2023/11/19 05:02:00;;;;;;;3.28;2.38;;;;;;;4.36;100.00;99803.88;5011683;28;20499;-75
2023/11/19 05:04:26;;;;;;;3.53;2.50;;;;;;;4.32;100.00;99795.38;4995353;28;20067;-77
2023/11/19 05:06:51;;;;;;;3.67;2.45;;;;;;;4.40;100.00;99781.44;5030109;28;20025;-76
2023/11/19 05:09:16;;;;;;;2.37;1.83;;;;;;;4.29;100.00;99773.72;4992623;28;20124;-77
2023/11/19 05:11:43;;;;;;;3.23;2.50;;;;;;;4.43;100.00;99776.72;5014598;28;20030;-75
2023/11/19 05:14:09;;;;;;;2.33;1.90;;;;;;;4.56;100.00;99779.00;5000364;28;20785;-76
2023/11/19 05:16:35;;;;;;;3.03;1.92;;;;;;;4.62;100.00;99782.88;5012195;28;20106;-76
2023/11/19 05:19:00;;;;;;;2.72;2.38;;;;;;;4.56;100.00;99783.47;5029104;28;20036;-77
2023/11/19 05:21:26;;;;;;;2.83;2.40;;;;;;;4.52;100.00;99766.22;5011817;28;20037;-77
2023/11/19 05:23:51;;;;;;;3.45;2.65;;;;;;;4.40;100.00;99760.28;5011840;28;20143;-77
2023/11/19 05:26:21;;;;;;;4.93;2.63;;;;;;;4.54;100.00;99762.47;5008101;28;20488;-75
2023/11/19 05:28:47;;;;;;;3.00;2.45;;;;;;;4.60;100.00;99767.16;4979715;28;20033;-77
2023/11/19 05:31:12;;;;;;;5.70;3.70;;;;;;;4.60;100.00;99756.56;4988689;28;20388;-76
2023/11/19 05:33:38;;;;;;;3.50;2.70;;;;;;;4.62;100.00;99753.78;5005193;28;20026;-77
2023/11/19 05:36:04;;;;;;;4.73;2.77;;;;;;;4.63;100.00;99743.06;4991004;28;20281;-75
2023/11/19 05:38:30;;;;;;;4.40;3.25;;;;;;;4.72;100.00;99748.44;5008114;28;20268;-77
2023/11/19 05:40:55;;;;;;;4.43;3.20;;;;;;;4.67;100.00;99748.88;5006003;28;20064;-76
2023/11/19 05:43:22;;;;;;;5.10;3.50;;;;;;;4.62;100.00;99732.66;4992629;28;20034;-76
2023/11/19 05:45:47;;;;;;;4.80;3.40;;;;;;;4.73;100.00;99739.50;4991835;28;20053;-73
2023/11/19 05:48:12;;;;;;;4.40;3.20;;;;;;;4.88;100.00;99743.31;4989553;28;20529;-77
2023/11/19 05:50:38;;;;;;;4.80;3.47;;;;;;;4.90;100.00;99736.06;5008939;28;20288;-77
2023/11/19 05:53:10;;;;;;;8.95;3.38;;;;;;;4.80;100.00;99728.22;5024031;28;20036;-78
2023/11/19 05:55:37;;;;;;;4.38;3.10;;;;;;;5.02;100.00;99739.31;5009971;28;20034;-77
2023/11/19 05:58:04;;;;;;;8.95;4.47;;;;;;;5.04;100.00;99738.19;5012988;28;20037;-76
2023/11/19 06:00:30;;;;;;;6.68;4.20;;;;;;;5.10;100.00;99735.91;5030601;28;20038;-77
2023/11/19 06:02:55;;;;;;;7.60;4.35;;;;;;;4.92;100.00;99718.25;5034378;28;20022;-77
2023/11/19 06:05:21;;;;;;;9.73;4.75;;;;;;;4.94;100.00;99721.56;5008532;28;20045;-77
2023/11/19 06:07:46;;;;;;;13.60;6.00;;;;;;;5.10;100.00;99717.38;5015510;28;20053;-77
2023/11/19 06:10:13;;;;;;;10.50;5.77;;;;;;;5.22;100.00;99730.25;5023127;28;20029;-76
2023/11/19 06:12:40;;;;;;;14.40;5.90;;;;;;;5.13;100.00;99714.44;5015265;28;20295;-77
2023/11/19 06:15:08;;;;;;;10.07;5.90;;;;;;;5.31;100.00;99719.72;5013596;28;20041;-77
2023/11/19 06:17:33;;;;;;;12.32;6.45;;;;;;;5.27;100.00;99711.25;5008141;28;20068;-77
2023/11/19 06:19:59;;;;;;;14.00;5.95;;;;;;;5.33;100.00;99723.88;4995741;28;20033;-77
2023/11/19 06:22:24;;;;;;;13.00;6.50;;;;;;;5.38;100.00;99718.13;5012023;28;20041;-72
2023/11/19 06:24:50;;;;;;;12.90;7.20;;;;;;;5.41;100.00;99713.34;5011565;28;20064;-77
2023/11/19 06:27:15;;;;;;;14.50;7.83;;;;;;;5.42;100.00;99714.19;4992294;28;20288;-76
2023/11/19 06:29:40;;;;;;;15.40;7.60;;;;;;;5.48;100.00;99719.69;5027889;28;20075;-77
2023/11/19 06:32:07;;;;;;;17.60;7.57;;;;;;;5.44;100.00;99712.22;4991842;28;20361;-77
2023/11/19 06:34:33;;;;;;;19.75;8.98;;;;;;;5.55;100.00;99708.47;5009048;28;20033;-76
2023/11/19 06:36:59;;;;;;;20.85;10.10;;;;;;;5.56;100.00;99710.97;4991896;28;20100;-75
2023/11/19 06:39:24;;;;;;;24.07;9.70;;;;;;;5.61;100.00;99708.69;5008765;28;20056;-76
2023/11/19 06:41:50;;;;;;;20.70;8.95;;;;;;;5.60;100.00;99707.03;5029067;28;20113;-77
2023/11/19 06:44:15;;;;;;;30.70;11.82;;;;;;;5.66;100.00;99716.97;4982660;28;20115;-77
2023/11/19 06:46:41;;;;;;;25.20;10.70;;;;;;;5.71;100.00;99713.88;4995858;28;20122;-77
2023/11/19 06:49:07;;;;;;;24.70;11.00;;;;;;;5.68;100.00;99704.41;4997211;28;20339;-77
2023/11/19 06:51:33;;;;;;;32.50;11.68;;;;;;;5.67;100.00;99700.13;5009831;28;20281;-77
2023/11/19 06:53:59;;;;;;;30.02;12.52;;;;;;;5.67;100.00;99701.94;5013746;28;20040;-77
2023/11/19 06:56:24;;;;;;;37.05;13.90;;;;;;;5.73;100.00;99703.94;5012665;28;20056;-76
2023/11/19 06:58:51;;;;;;;29.60;13.40;;;;;;;5.83;100.00;99709.13;4991768;28;20044;-77
2023/11/19 07:01:17;;;;;;;34.80;15.27;;;;;;;6.01;100.00;99715.22;4994523;28;20058;-77
2023/11/19 07:03:44;;;;;;;26.83;13.00;;;;;;;6.03;100.00;99715.06;4996949;28;20034;-76
2023/11/19 07:06:10;;;;;;;39.67;14.43;;;;;;;6.10;100.00;99713.44;5024715;28;20113;-77
2023/11/19 07:08:36;;;;;;;29.25;13.05;;;;;;;6.16;100.00;99714.63;5012108;28;20132;-76
2023/11/19 07:11:02;;;;;;;37.05;14.13;;;;;;;6.01;100.00;99693.19;5009280;28;20351;-75
2023/11/19 07:13:27;;;;;;;43.75;14.73;;;;;;;6.07;100.00;99697.88;4990453;28;20127;-75
2023/11/19 07:15:55;;;;;;;36.97;13.98;;;;;;;6.16;100.00;99694.28;5013511;28;20472;-77
2023/11/19 07:18:24;;;;;;;36.20;14.15;;;;;;;6.28;100.00;99705.41;5013511;28;20088;-78
2023/11/19 07:20:49;;;;;;;45.40;15.23;;;;;;;6.29;100.00;99696.47;4996514;28;20539;-77
2023/11/19 07:23:16;;;;;;;48.63;15.30;;;;;;;6.30;100.00;99691.00;5013863;28;20169;-79
2023/11/19 07:25:48;;;;;;;45.33;15.73;;;;;;;6.45;100.00;99709.78;5013149;28;20162;-78
2023/11/19 07:28:14;;;;;;;46.75;16.85;;;;;;;6.53;100.00;99698.34;5007948;28;20440;-77
2023/11/19 07:30:39;;;;;;;45.42;17.00;;;;;;;6.61;100.00;99698.38;5012801;28;20074;-77
2023/11/19 07:33:05;;;;;;;43.70;16.42;;;;;;;6.59;100.00;99702.19;4996636;28;20142;-78
2023/11/19 07:35:31;;;;;;;47.10;17.50;;;;;;;6.72;100.00;99703.38;4999076;28;20040;-77
2023/11/19 07:37:57;;;;;;;53.75;19.10;;;;;;;6.85;100.00;99702.06;5011943;28;20327;-75
2023/11/19 07:40:25;;;;;;;45.53;18.00;;;;;;;6.97;100.00;99700.75;5012154;28;20449;-78
2023/11/19 07:42:52;;;;;;;42.42;17.02;;;;;;;7.06;100.00;99698.94;5006719;28;20471;-75
2023/11/19 07:45:17;;;;;;;40.87;15.60;;;;;;;7.10;100.00;99701.09;4993062;28;20038;-76
2023/11/19 07:47:44;;;;;;;48.33;15.90;;;;;;;7.16;100.00;99708.41;4999754;28;20621;-77
2023/11/19 07:50:10;;;;;;;46.42;17.38;;;;;;;7.24;100.00;99704.09;4995001;28;20056;-77
2023/11/19 07:52:36;;;;;;;44.22;19.05;;;;;;;7.29;100.00;99707.91;5011864;28;20042;-76
2023/11/19 07:55:02;;;;;;;51.30;18.95;;;;;;;7.36;100.00;99700.91;5010566;28;20038;-78
2023/11/19 07:57:30;;;;;;;55.78;21.20;;;;;;;7.47;100.00;99701.56;5011036;28;20079;-76
2023/11/19 07:59:55;;;;;;;54.97;20.30;;;;;;;7.59;100.00;99702.91;4988681;28;20034;-76
2023/11/19 08:02:21;;;;;;;55.07;19.47;;;;;;;7.75;100.00;99704.66;4994387;28;20063;-78
2023/11/19 08:04:49;;;;;;;55.45;20.25;;;;;;;7.87;100.00;99703.34;5024035;23;20136;-78
2023/11/19 08:07:15;;;;;;;51.45;19.75;;;;;;;7.99;100.00;99701.97;5028310;28;20037;-78
2023/11/19 08:09:40;;;;;;;41.70;18.87;;;;;;;8.08;100.00;99704.56;5028347;28;20032;-79
2023/11/19 08:12:07;;;;;;;52.50;21.10;;;;;;;8.22;100.00;99701.22;5031969;28;20279;-79
2023/11/19 08:14:32;;;;;;;46.13;17.98;;;;;;;8.30;100.00;99706.50;5050837;28;20075;-79
2023/11/19 08:16:58;;;;;;;46.47;17.42;;;;;;;8.33;100.00;99705.31;5031586;28;20072;-79
2023/11/19 08:19:23;;;;;;;39.00;17.33;;;;;;;8.47;100.00;99709.09;5032202;28;20044;-80
2023/11/19 08:21:48;;;;;;;68.97;18.67;;;;;;;8.57;100.00;99707.91;5064953;28;20041;-79
2023/11/19 08:24:14;;;;;;;58.23;18.60;;;;;;;8.64;100.00;99700.06;5059373;28;20036;-79
2023/11/19 08:26:39;;;;;;;53.60;17.90;;;;;;;8.68;100.00;99685.38;5047749;28;20048;-79
2023/11/19 08:29:05;;;;;;;47.00;17.30;;;;;;;8.74;100.00;99678.53;5044810;28;20040;-79
2023/11/19 08:31:30;;;;;;;67.78;18.13;;;;;;;8.82;100.00;99686.44;5030806;28;20120;-79
2023/11/19 08:33:55;;;;;;;56.60;18.43;;;;;;;8.76;100.00;99687.16;5047722;28;20127;-79
2023/11/19 08:36:21;;;;;;;38.40;17.17;;;;;;;8.72;100.00;99693.84;5039950;28;20073;-79
2023/11/19 08:38:46;;;;;;;44.13;15.33;;;;;;;8.62;100.00;99691.41;5063135;28;20039;-79
2023/11/19 08:41:12;;;;;;;47.20;16.20;;;;;;;8.78;100.00;99687.78;5030989;28;20037;-79
2023/11/19 08:43:37;;;;;;;40.90;13.47;;;;;;;8.88;100.00;99691.88;5047505;28;20075;-79
2023/11/19 08:46:04;;;;;;;55.05;15.50;;;;;;;9.01;100.00;99691.31;5046270;28;20274;-79
2023/11/19 08:48:29;;;;;;;40.00;14.50;;;;;;;9.13;100.00;99691.72;5043305;28;20036;-79
2023/11/19 08:50:54;;;;;;;33.10;12.00;;;;;;;9.19;100.00;99698.97;5029772;28;20040;-79
2023/11/19 08:53:20;;;;;;;39.93;9.87;;;;;;;9.22;100.00;99703.94;5026610;28;20037;-78
2023/11/19 08:55:46;;;;;;;45.00;10.40;;;;;;;9.35;100.00;99697.19;5030141;28;20094;-79
2023/11/19 08:58:11;;;;;;;58.22;11.50;;;;;;;9.40;100.00;99708.97;5047862;28;20039;-77
2023/11/19 09:00:36;;;;;;;50.63;9.57;;;;;;;9.43;100.00;99705.09;5047160;28;20045;-76
2023/11/19 09:03:02;;;;;;;54.05;10.02;;;;;;;9.46;100.00;99704.75;5030889;28;20068;-76
2023/11/19 09:05:27;;;;;;;45.65;8.52;;;;;;;9.50;100.00;99706.88;5065259;28;20041;-76
2023/11/19 09:07:53;;;;;;;76.60;12.70;;;;;;;9.66;100.00;99713.06;5047997;28;20046;-76
2023/11/19 09:10:18;;;;;;;73.33;11.70;;;;;;;9.67;100.00;99709.41;5047779;28;20119;-76
2023/11/19 09:12:43;;;;;;;73.47;10.83;;;;;;;9.76;100.00;99708.28;5050122;28;20041;-76
2023/11/19 09:15:10;;;;;;;56.80;10.80;;;;;;;9.89;100.00;99702.31;5053623;28;20044;-76
2023/11/19 09:17:36;;;;;;;55.80;9.75;;;;;;;9.91;100.00;99705.63;5054201;28;20127;-76
2023/11/19 09:20:01;;;;;;;65.43;10.60;;;;;;;10.01;100.00;99708.03;5037150;28;20151;-75
2023/11/19 09:22:26;;;;;;;61.33;11.50;;;;;;;10.05;100.00;99703.97;5052175;28;20344;-76
2023/11/19 09:24:52;;;;;;;52.67;9.13;;;;;;;10.03;100.00;99714.81;5034725;28;20037;-76
2023/11/19 09:27:17;;;;;;;52.73;9.53;;;;;;;10.06;100.00;99714.44;5040858;28;20062;-76
2023/11/19 09:29:43;;;;;;;52.10;9.50;;;;;;;10.15;100.00;99713.34;5055324;28;20962;-76
2023/11/19 09:32:08;;;;;;;60.53;9.18;;;;;;;10.14;100.00;99710.88;5040088;28;20131;-77
2023/11/19 09:34:33;;;;;;;46.57;8.70;;;;;;;10.22;100.00;99716.09;5041371;28;20035;-76
2023/11/19 09:36:59;;;;;;;69.40;10.60;;;;;;;10.29;100.00;99718.88;5054442;28;20282;-77
2023/11/19 09:39:25;;;;;;;50.57;8.63;;;;;;;10.32;100.00;99711.34;5056022;28;20045;-77
2023/11/19 09:41:51;;;;;;;;;;;;;;;10.31;100.00;99715.03;5039267;28;20516;-77
2023/11/19 09:44:18;;;;;;;60.47;9.13;;;;;;;10.29;100.00;99714.38;5057550;28;20023;-77
2023/11/19 09:46:44;;;;;;;44.92;8.05;;;;;;;10.19;100.00;99710.31;5041606;28;20055;-76
2023/11/19 09:49:10;;;;;;;;;;;;;;;10.26;100.00;99711.22;5056444;28;20224;-77
2023/11/19 09:51:36;;;;;;;56.33;8.57;;;;;;;10.20;100.00;99718.13;5056294;28;20426;-77
2023/11/19 09:54:02;;;;;;;48.38;7.43;;;;;;;10.12;100.00;99711.06;5053580;28;20029;-78
2023/11/19 09:56:29;;;;;;;42.90;9.55;;;;;;;10.25;100.00;99715.72;5056870;28;20037;-78
2023/11/19 09:58:55;;;;;;;44.63;6.95;;;;;;;10.37;100.00;99718.78;5061423;28;20036;-77
2023/11/19 10:01:20;;;;;;;36.78;6.93;;;;;;;10.23;100.00;99719.59;5040977;28;20041;-78
2023/11/19 10:03:47;;;;;;;33.50;7.20;;;;;;;10.42;100.00;99720.88;5046863;28;20071;-77
2023/11/19 10:06:14;;;;;;;38.05;6.10;;;;;;;10.36;100.00;99725.13;5043259;28;20028;-76
2023/11/19 10:08:43;;;;;;;25.48;6.70;;;;;;;10.40;100.00;99721.09;5062704;28;20033;-76
2023/11/19 10:11:10;;;;;;;29.25;6.78;;;;;;;10.28;100.00;99717.22;5040138;28;20043;-76
2023/11/19 10:13:39;;;;;;;39.15;6.10;;;;;;;10.20;100.00;99719.97;5037339;28;20052;-76
2023/11/19 10:16:09;;;;;;;50.03;7.95;;;;;;;10.19;100.00;99721.00;5047691;28;20068;-77
2023/11/19 10:18:38;;;;;;;44.33;7.45;;;;;;;10.21;100.00;99705.59;5049544;28;20158;-76
2023/11/19 10:21:06;;;;;;;45.15;6.70;;;;;;;10.24;100.00;99724.75;5054787;28;20024;-77
2023/11/19 10:23:51;;;;;;;34.78;7.00;;;;;;;10.26;100.00;99727.25;5034788;28;20032;-76
2023/11/19 10:26:17;;;;;;;42.88;6.03;;;;;;;10.25;100.00;99738.91;5050933;28;20036;-76
2023/11/19 10:28:45;;;;;;;37.38;7.85;;;;;;;10.27;100.00;99734.22;5073409;28;20020;-76
2023/11/19 10:31:17;;;;;;;45.13;7.05;;;;;;;10.29;100.00;99727.72;5037577;28;20044;-76
2023/11/19 10:33:47;;;;;;;43.33;7.30;;;;;;;10.13;100.00;99731.38;5055504;28;20050;-75
2023/11/19 10:36:13;;;;;;;43.53;8.23;;;;;;;10.07;100.00;99736.63;5073825;28;20044;-79
2023/11/19 10:38:40;;;;;;;48.40;7.05;;;;;;;10.19;100.00;99739.66;5053132;28;20040;-79
2023/11/19 10:41:05;;;;;;;37.45;7.15;;;;;;;10.12;100.00;99737.72;5055268;28;20040;-80
2023/11/19 10:43:31;;;;;;;43.08;7.82;;;;;;;10.10;100.00;99739.75;5057283;28;20021;-80
2023/11/19 10:46:11;;;;;;;40.88;7.47;;;;;;;10.14;100.00;99743.72;5042622;28;20036;-78
2023/11/19 10:48:36;;;;;;;44.08;6.30;;;;;;;10.14;100.00;99738.38;5057378;28;20039;-80
2023/11/19 10:51:06;;;;;;;42.72;7.68;;;;;;;10.18;100.00;99740.66;5057255;28;20028;-79
2023/11/19 10:53:35;;;;;;;42.97;5.85;;;;;;;10.27;100.00;99744.88;5036339;28;20694;-79
2023/11/19 10:56:04;;;;;;;42.35;7.82;;;;;;;10.30;100.00;99749.88;5054913;28;20032;-79
2023/11/19 10:58:32;;;;;;;42.17;8.27;;;;;;;10.28;100.00;99743.91;5069721;28;20475;-79
2023/11/19 11:01:05;;;;;;;45.60;7.07;;;;;;;10.37;100.00;99744.63;5053905;28;20033;-79
2023/11/19 11:03:39;;;;;;;52.13;6.95;;;;;;;10.30;100.00;99752.53;5021497;28;20036;-79
2023/11/19 11:06:05;;;;;;;46.03;7.93;;;;;;;10.27;100.00;99750.22;5034077;28;20032;-79
2023/11/19 11:08:31;;;;;;;42.28;7.57;;;;;;;10.33;100.00;99752.19;5067441;28;20033;-79
2023/11/19 11:11:20;;;;;;;58.00;10.88;;;;;;;10.35;100.00;99753.66;5058839;28;20050;-79
2023/11/19 11:14:05;;;;;;;60.67;9.07;;;;;;;10.32;100.00;99743.38;5059128;28;20047;-80
2023/11/19 11:16:31;;;;;;;46.85;9.63;;;;;;;10.33;100.00;99746.84;5054886;28;20399;-79
2023/11/19 11:18:58;;;;;;;59.25;9.98;;;;;;;10.43;100.00;99752.72;5045303;28;20778;-78